sensor_id;sensor_type;location;lat;lon;timestamp;pressure;altitude;pressure_sealevel;temperature;humidity
70745;BME280;59284;31.390;34.904;2022-12-05T00:00:53;95146.09;;;14.00;100.00
70745;BME280;59284;31.390;34.904;2022-12-05T00:03:25;95114.31;;;13.98;100.00
70745;BME280;59284;31.390;34.904;2022-12-05T00:05:53;95093.19;;;14.08;100.00
70745;BME280;59284;31.390;34.904;2022-12-05T00:08:20;95073.38;;;14.07;100.00
70745;BME280;59284;31.390;34.904;2022-12-05T00:10:50;95050.38;;;14.09;100.00
70745;BME280;59284;31.390;34.904;2022-12-05T00:13:17;95049.63;;;14.08;100.00
70745;BME280;59284;31.390;34.904;2022-12-05T00:15:46;95048.66;;;14.04;100.00
70745;BME280;59284;31.390;34.904;2022-12-05T00:18:13;95066.34;;;14.07;100.00
70745;BME280;59284;31.390;34.904;2022-12-05T00:20:47;95075.19;;;13.98;100.00
70745;BME280;59284;31.390;34.904;2022-12-05T00:23:14;95094.53;;;13.97;100.00
70745;BME280;59284;31.390;34.904;2022-12-05T00:25:40;95098.38;;;13.99;100.00
70745;BME280;59284;31.390;34.904;2022-12-05T00:28:07;95110.66;;;13.99;100.00
70745;BME280;59284;31.390;34.904;2022-12-05T00:30:39;95111.00;;;14.06;100.00
70745;BME280;59284;31.390;34.904;2022-12-05T00:33:06;95126.00;;;14.00;100.00
70745;BME280;59284;31.390;34.904;2022-12-05T00:35:34;95173.38;;;13.94;100.00
70745;BME280;59284;31.390;34.904;2022-12-05T00:38:01;95209.84;;;13.85;100.00
70745;BME280;59284;31.390;34.904;2022-12-05T00:40:28;95293.19;;;13.90;100.00
70745;BME280;59284;31.390;34.904;2022-12-05T00:42:58;95415.97;;;13.80;100.00
70745;BME280;59284;31.390;34.904;2022-12-05T00:45:30;95455.59;;;13.55;100.00
70745;BME280;59284;31.390;34.904;2022-12-05T00:48:02;95448.56;;;13.56;100.00
70745;BME280;59284;31.390;34.904;2022-12-05T00:50:33;95480.59;;;13.70;100.00
70745;BME280;59284;31.390;34.904;2022-12-05T00:53:01;95486.97;;;13.64;100.00
70745;BME280;59284;31.390;34.904;2022-12-05T00:55:30;95486.78;;;13.74;100.00
70745;BME280;59284;31.390;34.904;2022-12-05T00:58:17;95470.00;;;14.51;100.00
70745;BME280;59284;31.390;34.904;2022-12-05T01:00:46;95446.63;;;14.11;100.00
70745;BME280;59284;31.390;34.904;2022-12-05T01:03:12;95431.09;;;14.05;100.00
70745;BME280;59284;31.390;34.904;2022-12-05T01:05:39;95416.19;;;14.42;100.00
70745;BME280;59284;31.390;34.904;2022-12-05T01:08:07;95413.25;;;14.21;100.00
70745;BME280;59284;31.390;34.904;2022-12-05T01:11:04;95408.00;;;14.35;100.00
70745;BME280;59284;31.390;34.904;2022-12-05T01:13:34;95418.03;;;14.41;100.00
70745;BME280;59284;31.390;34.904;2022-12-05T01:16:00;95411.09;;;14.59;100.00
70745;BME280;59284;31.390;34.904;2022-12-05T01:18:31;95412.09;;;14.71;100.00
70745;BME280;59284;31.390;34.904;2022-12-05T01:21:06;95408.56;;;14.76;100.00
70745;BME280;59284;31.390;34.904;2022-12-05T01:23:52;95409.31;;;14.68;100.00
70745;BME280;59284;31.390;34.904;2022-12-05T01:26:20;95398.34;;;14.88;100.00
70745;BME280;59284;31.390;34.904;2022-12-05T01:28:48;95398.56;;;14.69;100.00
70745;BME280;59284;31.390;34.904;2022-12-05T01:31:22;95400.47;;;14.77;100.00
70745;BME280;59284;31.390;34.904;2022-12-05T01:33:53;95399.34;;;14.70;100.00
70745;BME280;59284;31.390;34.904;2022-12-05T01:36:21;95400.47;;;14.77;100.00
70745;BME280;59284;31.390;34.904;2022-12-05T01:38:52;95404.03;;;14.59;100.00
70745;BME280;59284;31.390;34.904;2022-12-05T01:41:21;95418.63;;;14.60;100.00
70745;BME280;59284;31.390;34.904;2022-12-05T01:44:01;95404.09;;;14.68;100.00
70745;BME280;59284;31.390;34.904;2022-12-05T01:46:32;95397.94;;;14.64;100.00
70745;BME280;59284;31.390;34.904;2022-12-05T01:49:03;95397.50;;;14.70;100.00
70745;BME280;59284;31.390;34.904;2022-12-05T01:51:37;95387.19;;;14.65;100.00
70745;BME280;59284;31.390;34.904;2022-12-05T01:54:07;95384.09;;;14.63;100.00
70745;BME280;59284;31.390;34.904;2022-12-05T01:56:34;95380.06;;;14.57;100.00
70745;BME280;59284;31.390;34.904;2022-12-05T01:59:07;95377.44;;;14.57;100.00
70745;BME280;59284;31.390;34.904;2022-12-05T02:01:36;95374.00;;;14.48;100.00
70745;BME280;59284;31.390;34.904;2022-12-05T02:04:06;95362.75;;;14.61;100.00
70745;BME280;59284;31.390;34.904;2022-12-05T02:06:33;95351.47;;;14.52;100.00
70745;BME280;59284;31.390;34.904;2022-12-05T02:09:04;95357.03;;;14.59;100.00
70745;BME280;59284;31.390;34.904;2022-12-05T02:11:32;95354.84;;;14.53;100.00
70745;BME280;59284;31.390;34.904;2022-12-05T02:14:19;95358.13;;;14.36;100.00
70745;BME280;59284;31.390;34.904;2022-12-05T02:17:53;95342.69;;;14.48;100.00
70745;BME280;59284;31.390;34.904;2022-12-05T02:20:23;95348.09;;;14.30;100.00
70745;BME280;59284;31.390;34.904;2022-12-05T02:26:27;95344.63;;;14.34;100.00
70745;BME280;59284;31.390;34.904;2022-12-05T02:31:54;95340.75;;;14.32;100.00
70745;BME280;59284;31.390;34.904;2022-12-05T02:34:51;95338.66;;;14.20;100.00
70745;BME280;59284;31.390;34.904;2022-12-05T02:40:43;95338.88;;;14.10;100.00
70745;BME280;59284;31.390;34.904;2022-12-05T02:43:36;95339.81;;;14.14;100.00
70745;BME280;59284;31.390;34.904;2022-12-05T02:46:11;95326.09;;;14.22;100.00
70745;BME280;59284;31.390;34.904;2022-12-05T02:48:41;95330.75;;;14.12;100.00
70745;BME280;59284;31.390;34.904;2022-12-05T02:51:14;95317.94;;;14.24;100.00
70745;BME280;59284;31.390;34.904;2022-12-05T02:53:56;95317.00;;;14.20;100.00
70745;BME280;59284;31.390;34.904;2022-12-05T02:56:24;95314.72;;;14.18;100.00
70745;BME280;59284;31.390;34.904;2022-12-05T02:58:54;95309.63;;;14.44;100.00
70745;BME280;59284;31.390;34.904;2022-12-05T03:01:24;95309.41;;;14.54;100.00
70745;BME280;59284;31.390;34.904;2022-12-05T03:03:52;95293.09;;;14.48;100.00
70745;BME280;59284;31.390;34.904;2022-12-05T03:06:23;95289.66;;;14.39;100.00
70745;BME280;59284;31.390;34.904;2022-12-05T03:09:00;95297.84;;;14.24;100.00
70745;BME280;59284;31.390;34.904;2022-12-05T03:11:41;95293.22;;;14.21;100.00
70745;BME280;59284;31.390;34.904;2022-12-05T03:14:24;95288.63;;;14.18;100.00
70745;BME280;59284;31.390;34.904;2022-12-05T03:16:53;95287.38;;;14.16;100.00
70745;BME280;59284;31.390;34.904;2022-12-05T03:19:31;95290.56;;;14.65;100.00
70745;BME280;59284;31.390;34.904;2022-12-05T03:22:09;95265.41;;;14.78;100.00
70745;BME280;59284;31.390;34.904;2022-12-05T03:24:39;95265.84;;;14.71;100.00
70745;BME280;59284;31.390;34.904;2022-12-05T03:27:12;95259.34;;;13.99;100.00
70745;BME280;59284;31.390;34.904;2022-12-05T03:29:59;95262.59;;;13.82;100.00
70745;BME280;59284;31.390;34.904;2022-12-05T03:32:54;95275.41;;;13.92;100.00
70745;BME280;59284;31.390;34.904;2022-12-05T03:36:12;95271.81;;;13.88;100.00
70745;BME280;59284;31.390;34.904;2022-12-05T03:38:52;95274.06;;;13.81;100.00
70745;BME280;59284;31.390;34.904;2022-12-05T03:41:52;95274.69;;;13.78;100.00
70745;BME280;59284;31.390;34.904;2022-12-05T03:44:32;95280.44;;;13.67;100.00
70745;BME280;59284;31.390;34.904;2022-12-05T03:47:23;95276.88;;;13.63;100.00
70745;BME280;59284;31.390;34.904;2022-12-05T03:49:55;95276.88;;;13.63;100.00
70745;BME280;59284;31.390;34.904;2022-12-05T03:52:36;95282.72;;;13.46;100.00
70745;BME280;59284;31.390;34.904;2022-12-05T03:55:07;95276.56;;;13.28;100.00
70745;BME280;59284;31.390;34.904;2022-12-05T03:58:00;95274.31;;;13.35;100.00
70745;BME280;59284;31.390;34.904;2022-12-05T04:00:41;95277.13;;;13.39;100.00
70745;BME280;59284;31.390;34.904;2022-12-05T04:03:22;95276.25;;;13.44;100.00
70745;BME280;59284;31.390;34.904;2022-12-05T04:24:22;95265.72;;;13.93;100.00
70745;BME280;59284;31.390;34.904;2022-12-05T04:27:22;95256.47;;;13.87;100.00
70745;BME280;59284;31.390;34.904;2022-12-05T04:32:36;95248.00;;;13.81;100.00
70745;BME280;59284;31.390;34.904;2022-12-05T04:35:10;95244.75;;;13.76;100.00
70745;BME280;59284;31.390;34.904;2022-12-05T04:37:41;95228.88;;;13.86;100.00
70745;BME280;59284;31.390;34.904;2022-12-05T04:40:38;95189.03;;;13.94;100.00
70745;BME280;59284;31.390;34.904;2022-12-05T04:43:07;95188.09;;;13.90;100.00
70745;BME280;59284;31.390;34.904;2022-12-05T04:45:37;95180.00;;;14.00;100.00
70745;BME280;59284;31.390;34.904;2022-12-05T04:48:28;95171.59;;;14.12;100.00
70745;BME280;59284;31.390;34.904;2022-12-05T04:50:58;95167.63;;;14.14;100.00
70745;BME280;59284;31.390;34.904;2022-12-05T04:53:29;95163.41;;;14.27;100.00
70745;BME280;59284;31.390;34.904;2022-12-05T04:55:59;95165.00;;;14.36;100.00
70745;BME280;59284;31.390;34.904;2022-12-05T04:58:31;95165.94;;;14.40;100.00
70745;BME280;59284;31.390;34.904;2022-12-05T05:01:03;95168.06;;;14.38;100.00
70745;BME280;59284;31.390;34.904;2022-12-05T05:03:45;95161.63;;;14.36;100.00
70745;BME280;59284;31.390;34.904;2022-12-05T05:06:32;95154.59;;;14.53;100.00
70745;BME280;59284;31.390;34.904;2022-12-05T05:08:59;95162.56;;;14.48;100.00
70745;BME280;59284;31.390;34.904;2022-12-05T05:11:30;95154.78;;;14.65;100.00
70745;BME280;59284;31.390;34.904;2022-12-05T05:14:11;95161.69;;;14.78;100.00
70745;BME280;59284;31.390;34.904;2022-12-05T05:16:42;95157.88;;;14.85;100.00
70745;BME280;59284;31.390;34.904;2022-12-05T05:19:10;95160.19;;;14.95;100.00
70745;BME280;59284;31.390;34.904;2022-12-05T05:21:51;95161.56;;;14.92;100.00
70745;BME280;59284;31.390;34.904;2022-12-05T05:24:41;95166.81;;;15.09;100.00
70745;BME280;59284;31.390;34.904;2022-12-05T05:27:13;95159.28;;;14.99;100.00
70745;BME280;59284;31.390;34.904;2022-12-05T05:29:43;95155.59;;;15.34;100.00
70745;BME280;59284;31.390;34.904;2022-12-05T05:32:09;95156.81;;;15.54;100.00
70745;BME280;59284;31.390;34.904;2022-12-05T05:34:44;95151.00;;;16.03;100.00
70745;BME280;59284;31.390;34.904;2022-12-05T05:37:15;95146.16;;;15.85;100.00
70745;BME280;59284;31.390;34.904;2022-12-05T05:39:43;95148.97;;;16.17;100.00
70745;BME280;59284;31.390;34.904;2022-12-05T05:42:12;95145.44;;;16.13;100.00
70745;BME280;59284;31.390;34.904;2022-12-05T05:57:38;95149.47;;;16.40;100.00
70745;BME280;59284;31.390;34.904;2022-12-05T06:00:07;95149.22;;;16.62;100.00
70745;BME280;59284;31.390;34.904;2022-12-05T06:02:36;95129.38;;;17.23;100.00
70745;BME280;59284;31.390;34.904;2022-12-05T06:05:02;95143.25;;;17.24;100.00
70745;BME280;59284;31.390;34.904;2022-12-05T06:07:28;95136.28;;;17.28;100.00
70745;BME280;59284;31.390;34.904;2022-12-05T06:09:58;95124.09;;;17.44;100.00
70745;BME280;59284;31.390;34.904;2022-12-05T06:12:24;95128.00;;;17.59;100.00
70745;BME280;59284;31.390;34.904;2022-12-05T06:14:50;95137.72;;;18.03;100.00
70745;BME280;59284;31.390;34.904;2022-12-05T06:17:17;95230.59;;;17.16;100.00
70745;BME280;59284;31.390;34.904;2022-12-05T06:19:43;95508.72;;;17.57;100.00
70745;BME280;59284;31.390;34.904;2022-12-05T06:22:08;95545.16;;;17.59;100.00
70745;BME280;59284;31.390;34.904;2022-12-05T06:24:34;95553.16;;;17.62;100.00
70745;BME280;59284;31.390;34.904;2022-12-05T06:27:00;95536.97;;;17.98;100.00
70745;BME280;59284;31.390;34.904;2022-12-05T06:29:26;95542.31;;;18.31;100.00
70745;BME280;59284;31.390;34.904;2022-12-05T06:31:51;95530.47;;;18.74;100.00
70745;BME280;59284;31.390;34.904;2022-12-05T06:34:17;95525.72;;;19.21;100.00
70745;BME280;59284;31.390;34.904;2022-12-05T06:36:44;95522.72;;;18.28;100.00
70745;BME280;59284;31.390;34.904;2022-12-05T06:39:10;95521.88;;;18.65;100.00
70745;BME280;59284;31.390;34.904;2022-12-05T06:41:37;95523.84;;;18.89;100.00
70745;BME280;59284;31.390;34.904;2022-12-05T06:44:03;95520.94;;;18.20;100.00
70745;BME280;59284;31.390;34.904;2022-12-05T06:46:30;95518.25;;;18.90;100.00
70745;BME280;59284;31.390;34.904;2022-12-05T06:48:57;95517.91;;;18.80;100.00
70745;BME280;59284;31.390;34.904;2022-12-05T06:51:24;95513.53;;;19.17;100.00
70745;BME280;59284;31.390;34.904;2022-12-05T06:53:50;95504.34;;;19.11;100.00
70745;BME280;59284;31.390;34.904;2022-12-05T06:56:19;95504.22;;;19.52;100.00
70745;BME280;59284;31.390;34.904;2022-12-05T06:58:47;95503.56;;;20.15;100.00
70745;BME280;59284;31.390;34.904;2022-12-05T07:01:18;95492.66;;;21.99;100.00
70745;BME280;59284;31.390;34.904;2022-12-05T07:04:06;95470.66;;;23.67;100.00
70745;BME280;59284;31.390;34.904;2022-12-05T07:06:33;95473.84;;;23.12;100.00
70745;BME280;59284;31.390;34.904;2022-12-05T07:09:00;95466.63;;;24.55;100.00
70745;BME280;59284;31.390;34.904;2022-12-05T07:11:26;95472.44;;;23.37;100.00
70745;BME280;59284;31.390;34.904;2022-12-05T07:13:52;95481.69;;;23.04;100.00
70745;BME280;59284;31.390;34.904;2022-12-05T07:16:20;95489.69;;;21.38;100.00
70745;BME280;59284;31.390;34.904;2022-12-05T07:18:45;95482.94;;;20.29;100.00
70745;BME280;59284;31.390;34.904;2022-12-05T07:21:13;95498.31;;;20.15;100.00
70745;BME280;59284;31.390;34.904;2022-12-05T07:23:42;95492.69;;;20.81;100.00
70745;BME280;59284;31.390;34.904;2022-12-05T07:26:10;95492.78;;;20.45;100.00
70745;BME280;59284;31.390;34.904;2022-12-05T07:28:37;95490.16;;;20.45;100.00
70745;BME280;59284;31.390;34.904;2022-12-05T07:31:23;95492.25;;;20.15;100.00
70745;BME280;59284;31.390;34.904;2022-12-05T07:33:50;95484.38;;;21.22;100.00
70745;BME280;59284;31.390;34.904;2022-12-05T07:36:19;95487.22;;;20.74;100.00
70745;BME280;59284;31.390;34.904;2022-12-05T07:38:47;95494.03;;;20.23;100.00
70745;BME280;59284;31.390;34.904;2022-12-05T07:41:21;95486.31;;;20.42;100.00
70745;BME280;59284;31.390;34.904;2022-12-05T07:43:51;95477.47;;;23.23;100.00
70745;BME280;59284;31.390;34.904;2022-12-05T07:46:17;95463.03;;;25.03;100.00
70745;BME280;59284;31.390;34.904;2022-12-05T07:48:43;95473.72;;;24.48;100.00
70745;BME280;59284;31.390;34.904;2022-12-05T07:51:11;95449.66;;;26.28;100.00
70745;BME280;59284;31.390;34.904;2022-12-05T07:53:38;95454.97;;;27.28;100.00
70745;BME280;59284;31.390;34.904;2022-12-05T07:56:07;95465.88;;;26.77;100.00
70745;BME280;59284;31.390;34.904;2022-12-05T07:58:34;95467.00;;;26.76;100.00
70745;BME280;59284;31.390;34.904;2022-12-05T08:01:11;95459.97;;;27.54;100.00
70745;BME280;59284;31.390;34.904;2022-12-05T08:03:38;95455.44;;;29.05;100.00
70745;BME280;59284;31.390;34.904;2022-12-05T08:06:38;95462.91;;;27.10;100.00
70745;BME280;59284;31.390;34.904;2022-12-05T08:08:58;95463.28;;;26.19;100.00
70745;BME280;59284;31.390;34.904;2022-12-05T08:11:29;95458.44;;;29.72;100.00
70745;BME280;59284;31.390;34.904;2022-12-05T08:13:59;95457.03;;;29.57;100.00
70745;BME280;59284;31.390;34.904;2022-12-05T08:16:27;95454.63;;;27.47;100.00
70745;BME280;59284;31.390;34.904;2022-12-05T08:18:58;95450.81;;;28.05;100.00
70745;BME280;59284;31.390;34.904;2022-12-05T08:21:27;95445.31;;;28.58;100.00
70745;BME280;59284;31.390;34.904;2022-12-05T08:23:53;95440.00;;;28.58;100.00
70745;BME280;59284;31.390;34.904;2022-12-05T08:26:22;95441.25;;;28.25;100.00
70745;BME280;59284;31.390;34.904;2022-12-05T08:28:53;95439.13;;;30.39;100.00
70745;BME280;59284;31.390;34.904;2022-12-05T08:31:20;95441.19;;;29.29;100.00
70745;BME280;59284;31.390;34.904;2022-12-05T08:33:48;95443.84;;;24.51;100.00
70745;BME280;59284;31.390;34.904;2022-12-05T08:36:15;95442.06;;;24.28;100.00
70745;BME280;59284;31.390;34.904;2022-12-05T08:38:42;95429.22;;;24.97;100.00
70745;BME280;59284;31.390;34.904;2022-12-05T08:41:10;95439.00;;;24.56;100.00
70745;BME280;59284;31.390;34.904;2022-12-05T08:43:37;95438.22;;;24.56;100.00
70745;BME280;59284;31.390;34.904;2022-12-05T08:46:03;95428.72;;;27.65;100.00
70745;BME280;59284;31.390;34.904;2022-12-05T08:48:30;95428.34;;;25.26;100.00
70745;BME280;59284;31.390;34.904;2022-12-05T08:50:58;95420.47;;;26.42;100.00
70745;BME280;59284;31.390;34.904;2022-12-05T08:53:26;95430.66;;;25.28;100.00
70745;BME280;59284;31.390;34.904;2022-12-05T08:55:51;95441.13;;;22.24;100.00
70745;BME280;59284;31.390;34.904;2022-12-05T08:58:18;95422.22;;;27.91;100.00
70745;BME280;59284;31.390;34.904;2022-12-05T09:00:44;95413.59;;;30.28;100.00
70745;BME280;59284;31.390;34.904;2022-12-05T09:03:10;95403.03;;;28.52;100.00
70745;BME280;59284;31.390;34.904;2022-12-05T09:05:37;95415.88;;;26.39;100.00
70745;BME280;59284;31.390;34.904;2022-12-05T09:08:06;95407.25;;;28.46;100.00
70745;BME280;59284;31.390;34.904;2022-12-05T09:10:32;95414.22;;;27.10;100.00
70745;BME280;59284;31.390;34.904;2022-12-05T09:12:58;95398.72;;;29.90;100.00
70745;BME280;59284;31.390;34.904;2022-12-05T09:15:25;95400.84;;;30.73;100.00
70745;BME280;59284;31.390;34.904;2022-12-05T09:17:58;95388.59;;;29.67;100.00
70745;BME280;59284;31.390;34.904;2022-12-05T09:20:24;95391.47;;;30.24;100.00
70745;BME280;59284;31.390;34.904;2022-12-05T09:22:51;95385.19;;;31.51;100.00
70745;BME280;59284;31.390;34.904;2022-12-05T09:25:20;95386.75;;;28.26;100.00
70745;BME280;59284;31.390;34.904;2022-12-05T09:27:49;95386.00;;;29.56;100.00
70745;BME280;59284;31.390;34.904;2022-12-05T09:30:15;95382.94;;;30.36;100.00
70745;BME280;59284;31.390;34.904;2022-12-05T09:32:43;95378.50;;;31.63;100.00
70745;BME280;59284;31.390;34.904;2022-12-05T09:35:10;95361.84;;;31.52;100.00
70745;BME280;59284;31.390;34.904;2022-12-05T09:37:39;95365.34;;;29.60;100.00
70745;BME280;59284;31.390;34.904;2022-12-05T09:40:13;95358.94;;;30.89;100.00
70745;BME280;59284;31.390;34.904;2022-12-05T09:45:14;95356.97;;;29.07;100.00
70745;BME280;59284;31.390;34.904;2022-12-05T09:48:06;95348.44;;;32.53;100.00
70745;BME280;59284;31.390;34.904;2022-12-05T09:53:23;95350.75;;;28.55;100.00
70745;BME280;59284;31.390;34.904;2022-12-05T09:56:05;95351.47;;;29.76;100.00
70745;BME280;59284;31.390;34.904;2022-12-05T09:58:43;95351.38;;;30.81;100.00
70745;BME280;59284;31.390;34.904;2022-12-05T10:04:14;95334.13;;;28.99;100.00
70745;BME280;59284;31.390;34.904;2022-12-05T10:07:00;95325.97;;;30.02;100.00
70745;BME280;59284;31.390;34.904;2022-12-05T10:09:44;95316.09;;;30.29;100.00
70745;BME280;59284;31.390;34.904;2022-12-05T10:15:07;95309.81;;;32.08;100.00
70745;BME280;59284;31.390;34.904;2022-12-05T10:17:38;95310.97;;;31.68;100.00
70745;BME280;59284;31.390;34.904;2022-12-05T10:20:29;95315.66;;;29.63;100.00
70745;BME280;59284;31.390;34.904;2022-12-05T10:23:20;95303.63;;;29.44;100.00
70745;BME280;59284;31.390;34.904;2022-12-05T10:25:52;95297.25;;;30.06;100.00
70745;BME280;59284;31.390;34.904;2022-12-05T10:28:32;95296.38;;;35.22;100.00
70745;BME280;59284;31.390;34.904;2022-12-05T10:31:10;95298.31;;;34.84;100.00
70745;BME280;59284;31.390;34.904;2022-12-05T10:33:50;95299.47;;;30.44;100.00
70745;BME280;59284;31.390;34.904;2022-12-05T10:36:23;95286.97;;;27.95;100.00
70745;BME280;59284;31.390;34.904;2022-12-05T10:38:53;95291.47;;;29.36;100.00
70745;BME280;59284;31.390;34.904;2022-12-05T10:41:29;95278.44;;;28.35;100.00
70745;BME280;59284;31.390;34.904;2022-12-05T10:43:57;95284.94;;;28.31;100.00
70745;BME280;59284;31.390;34.904;2022-12-05T10:46:24;95283.97;;;26.24;100.00
70745;BME280;59284;31.390;34.904;2022-12-05T10:48:53;95284.03;;;24.61;100.00
70745;BME280;59284;31.390;34.904;2022-12-05T10:51:24;95296.22;;;25.63;100.00
70745;BME280;59284;31.390;34.904;2022-12-05T10:53:52;95277.06;;;30.31;100.00
70745;BME280;59284;31.390;34.904;2022-12-05T10:56:42;95272.06;;;28.15;100.00
70745;BME280;59284;31.390;34.904;2022-12-05T10:59:15;95268.06;;;33.11;100.00
70745;BME280;59284;31.390;34.904;2022-12-05T11:01:54;95279.13;;;28.50;100.00
70745;BME280;59284;31.390;34.904;2022-12-05T11:04:25;95272.06;;;28.12;100.00
70745;BME280;59284;31.390;34.904;2022-12-05T11:06:59;95271.63;;;32.20;100.00
70745;BME280;59284;31.390;34.904;2022-12-05T11:09:39;95267.94;;;27.97;100.00
70745;BME280;59284;31.390;34.904;2022-12-05T11:15:03;95266.50;;;26.26;100.00
70745;BME280;59284;31.390;34.904;2022-12-05T11:17:35;95262.91;;;30.01;100.00
70745;BME280;59284;31.390;34.904;2022-12-05T11:22:52;95245.38;;;29.62;100.00
70745;BME280;59284;31.390;34.904;2022-12-05T11:27:56;95248.94;;;30.73;100.00
70745;BME280;59284;31.390;34.904;2022-12-05T11:30:25;95245.63;;;28.42;100.00
70745;BME280;59284;31.390;34.904;2022-12-05T11:35:38;95229.31;;;31.49;100.00
70745;BME280;59284;31.390;34.904;2022-12-05T11:38:04;95238.16;;;29.93;100.00
70745;BME280;59284;31.390;34.904;2022-12-05T11:40:45;95233.38;;;30.91;100.00
70745;BME280;59284;31.390;34.904;2022-12-05T12:00:11;95227.44;;;31.85;100.00
70745;BME280;59284;31.390;34.904;2022-12-05T12:05:39;95232.41;;;30.78;100.00
70745;BME280;59284;31.390;34.904;2022-12-05T12:08:28;95225.53;;;32.06;100.00
70745;BME280;59284;31.390;34.904;2022-12-05T12:11:28;95230.69;;;28.48;100.00
70745;BME280;59284;31.390;34.904;2022-12-05T12:14:32;95226.78;;;30.46;100.00
70745;BME280;59284;31.390;34.904;2022-12-05T12:17:39;95229.28;;;27.46;100.00
70745;BME280;59284;31.390;34.904;2022-12-05T12:20:31;95234.88;;;26.07;100.00
70745;BME280;59284;31.390;34.904;2022-12-05T12:29:01;95224.53;;;27.89;100.00
70745;BME280;59284;31.390;34.904;2022-12-05T12:35:31;95225.53;;;26.98;100.00
70745;BME280;59284;31.390;34.904;2022-12-05T12:38:30;95217.88;;;31.02;100.00
70745;BME280;59284;31.390;34.904;2022-12-05T12:47:19;95205.41;;;28.67;100.00
70745;BME280;59284;31.390;34.904;2022-12-05T12:55:35;95229.22;;;22.18;100.00
70745;BME280;59284;31.390;34.904;2022-12-05T13:03:29;95214.38;;;26.08;100.00
70745;BME280;59284;31.390;34.904;2022-12-05T13:06:22;95214.53;;;28.14;100.00
70745;BME280;59284;31.390;34.904;2022-12-05T13:08:56;95219.19;;;27.93;100.00
70745;BME280;59284;31.390;34.904;2022-12-05T13:11:27;95224.00;;;26.72;100.00
70745;BME280;59284;31.390;34.904;2022-12-05T13:13:56;95230.69;;;26.06;100.00
70745;BME280;59284;31.390;34.904;2022-12-05T13:16:31;95218.06;;;27.90;100.00
70745;BME280;59284;31.390;34.904;2022-12-05T13:19:05;95212.59;;;26.79;100.00
70745;BME280;59284;31.390;34.904;2022-12-05T13:21:39;95229.00;;;24.51;100.00
70745;BME280;59284;31.390;34.904;2022-12-05T13:24:06;95221.25;;;27.36;100.00
70745;BME280;59284;31.390;34.904;2022-12-05T13:26:45;95226.69;;;25.47;100.00
70745;BME280;59284;31.390;34.904;2022-12-05T13:29:20;95216.59;;;27.75;100.00
70745;BME280;59284;31.390;34.904;2022-12-05T13:31:47;95230.25;;;25.87;100.00
70745;BME280;59284;31.390;34.904;2022-12-05T13:34:43;95233.84;;;24.85;100.00
70745;BME280;59284;31.390;34.904;2022-12-05T13:37:22;95228.41;;;24.71;100.00
70745;BME280;59284;31.390;34.904;2022-12-05T13:40:33;95236.34;;;23.61;100.00
70745;BME280;59284;31.390;34.904;2022-12-05T13:43:23;95239.25;;;23.82;100.00
70745;BME280;59284;31.390;34.904;2022-12-05T13:46:18;95225.94;;;24.08;100.00
70745;BME280;59284;31.390;34.904;2022-12-05T13:48:58;95237.97;;;24.35;100.00
70745;BME280;59284;31.390;34.904;2022-12-05T13:51:34;95242.41;;;24.28;100.00
70745;BME280;59284;31.390;34.904;2022-12-05T13:54:23;95239.16;;;24.82;100.00
70745;BME280;59284;31.390;34.904;2022-12-05T13:56:57;95248.75;;;24.20;100.00
70745;BME280;59284;31.390;34.904;2022-12-05T14:02:45;95267.97;;;22.53;100.00
70745;BME280;59284;31.390;34.904;2022-12-05T14:07:56;95270.00;;;21.98;100.00
70745;BME280;59284;31.390;34.904;2022-12-05T14:15:41;95287.84;;;20.69;100.00
70745;BME280;59284;31.390;34.904;2022-12-05T14:29:35;95315.63;;;17.85;100.00
70745;BME280;59284;31.390;34.904;2022-12-05T14:38:01;95313.13;;;16.80;100.00
70745;BME280;59284;31.390;34.904;2022-12-05T14:40:41;95314.44;;;16.95;100.00
70745;BME280;59284;31.390;34.904;2022-12-05T14:43:28;95307.16;;;16.63;100.00
70745;BME280;59284;31.390;34.904;2022-12-05T14:46:02;95307.66;;;16.94;100.00
70745;BME280;59284;31.390;34.904;2022-12-05T14:48:35;95312.63;;;16.87;100.00
70745;BME280;59284;31.390;34.904;2022-12-05T14:54:14;95312.34;;;16.71;100.00
70745;BME280;59284;31.390;34.904;2022-12-05T14:56:45;95319.19;;;16.55;100.00
70745;BME280;59284;31.390;34.904;2022-12-05T14:59:25;95320.00;;;16.30;100.00
70745;BME280;59284;31.390;34.904;2022-12-05T15:02:01;95307.69;;;16.22;100.00
70745;BME280;59284;31.390;34.904;2022-12-05T15:07:16;95319.41;;;16.25;100.00
70745;BME280;59284;31.390;34.904;2022-12-05T15:13:02;95313.06;;;16.34;100.00
70745;BME280;59284;31.390;34.904;2022-12-05T15:16:22;95308.63;;;16.17;100.00
70745;BME280;59284;31.390;34.904;2022-12-05T15:19:01;95305.09;;;15.96;100.00
70745;BME280;59284;31.390;34.904;2022-12-05T15:21:45;95302.16;;;16.15;100.00
70745;BME280;59284;31.390;34.904;2022-12-05T15:24:19;95275.69;;;16.08;100.00
70745;BME280;59284;31.390;34.904;2022-12-05T15:26:51;95268.78;;;15.86;100.00
70745;BME280;59284;31.390;34.904;2022-12-05T15:29:33;95236.31;;;15.96;100.00
70745;BME280;59284;31.390;34.904;2022-12-05T15:32:02;95214.75;;;15.99;100.00
70745;BME280;59284;31.390;34.904;2022-12-05T15:37:20;95210.25;;;16.08;100.00
70745;BME280;59284;31.390;34.904;2022-12-05T15:40:10;95207.53;;;15.87;100.00
70745;BME280;59284;31.390;34.904;2022-12-05T15:42:43;95192.63;;;15.88;100.00
70745;BME280;59284;31.390;34.904;2022-12-05T15:48:09;95165.97;;;15.94;100.00
70745;BME280;59284;31.390;34.904;2022-12-05T15:50:47;95153.38;;;15.88;100.00